Oregon City, OR

2:57 PM PDT on October 22, 2014 (GMT -0700)
KOROREGO13 | Change Station
CLOSE
Current Station
Personal Weather Station
Location: Redland, OR
Elevation: 344 ft
Nearby Weather Stations
Active Advisory: Special Statement Active Notice: Public Information Statement

Elev 344 ft 45.34 °N, 122.49 °W | Updated 11 minutes ago

Rain
Rain
57.9 °F
Feels Like 57.9 °F
N
0.0
Wind Variable Wind from North
Gusts 0.0 mph

Today
High -- | Low -- °F
--% Chance of Precip.
Yesterday
High -- | Low -- °F
Precip. -- in
7:35 AM 6:12 PM
Waning Crescent, 1% visible
Pressure 29.72 in
Visibility 3.0 miles
Clouds Mostly Cloudy 600 ft
Mostly Cloudy 1000 ft
Overcast 4100 ft
Dew Point 58 °F
Humidity 99%
Rainfall 0.40 in
Snow Depth Not available.
UV 1 out of 12
Pollen .40 out of 12
Ozone Good
PM2.5 Good
Flu Activity Sporadic
SPECI KUAO 222149Z AUTO 00000KT 3SM RA BR BKN006 BKN010 OVC041 14/13 A2972 RMK AO2 CIG 004V008 P0015

More Conditions Fewer Conditions

Pressure 29.72 in
Visibility 3.0 miles
Clouds Mostly Cloudy 600 ft
Mostly Cloudy 1000 ft
Overcast 4100 ft
Dew Point 58 °F
Humidity 99%
Rainfall 0.40 in
Snow Depth Not available.
UV 1 out of 12
Pollen .40 out of 12
Ozone Good
PM2.5 Good
Flu Activity Sporadic
SPECI KUAO 222149Z AUTO 00000KT 3SM RA BR BKN006 BKN010 OVC041 14/13 A2972 RMK AO2 CIG 004V008 P0015

More Conditions Fewer Conditions

10-Day Weather Forecast

Almanac

Astronomy

Oct. 22, 2014 Rise Set
Actual Time 7:35 AM PDT 6:12 PM PDT
Civil Twilight 7:05 AM PDT 6:42 PM PDT
Nautical Twilight 6:31 AM PDT 7:17 PM PDT
Astronomical Twilight 5:56 AM PDT 7:51 PM PDT
Moon 6:18 AM PDT 5:44 PM PDT
Length of Visible Light 11h 37m
Length of Day
10h 37m
Tomorrow will be 3m 0s shorter.
Waning Crescent, 1% of the Moon is Illuminated
Today
Waning Crescent
Oct 23
New
Oct 30
First Quarter
Nov 6
Full
Nov 14
Last Quarter

Today's Extremes

State Highs State Lows

Community

WunderPhotos

Upload Photos

1,764,047 photos uploaded!

WunderBlogs® & News

Nearby

Air Quality

  Air Quality AQ Index Pollutant
Yesterday Good
OZONE
Yesterday Good
PM2.5
Current Good
PM2.5
Current Good
OZONE
Wednesday Good
PM2.5
Thursday Good
PM2.5

Snow Depth

Station Depth Elevation
North Fork 0 in 3120 ft
Peavine Ridge 0 in 3500 ft
Seine Creek 0 in 2000 ft
Clear Lake 1 in 3500 ft
Red Hill 0 in 4400 ft

Earthquake Activity

City Distance Mag. Time & Date
No recent earthquake activity has been reported nearby.
Minimum magnitude displayed is 2.5.

Coastal Water Temperatures

Place Temperature
No Stations Reporting

Nearby Weather Stations